sensor_id;sensor_type;location;lat;lon;timestamp;pressure;altitude;pressure_sealevel;temperature;humidity
39773;BME280;25451;51.960;6.250;2023-07-13T00:00:27;101245.28;;;18.86;60.23
39773;BME280;25451;51.960;6.250;2023-07-13T00:02:53;101244.75;;;18.84;60.32
39773;BME280;25451;51.960;6.250;2023-07-13T00:05:22;101248.94;;;18.81;60.55
39773;BME280;25451;51.960;6.250;2023-07-13T00:07:49;101239.75;;;18.76;60.41
39773;BME280;25451;51.960;6.250;2023-07-13T00:10:15;101240.63;;;18.76;60.54
39773;BME280;25451;51.960;6.250;2023-07-13T00:12:40;101245.97;;;18.73;60.57
39773;BME280;25451;51.960;6.250;2023-07-13T00:15:12;101251.81;;;18.71;60.67
39773;BME280;25451;51.960;6.250;2023-07-13T00:17:38;101244.00;;;18.68;60.68
39773;BME280;25451;51.960;6.250;2023-07-13T00:20:05;101249.06;;;18.66;60.67
39773;BME280;25451;51.960;6.250;2023-07-13T00:22:31;101254.09;;;18.64;60.75
39773;BME280;25451;51.960;6.250;2023-07-13T00:24:56;101247.41;;;18.60;60.71
39773;BME280;25451;51.960;6.250;2023-07-13T00:27:22;101260.56;;;18.60;60.79
39773;BME280;25451;51.960;6.250;2023-07-13T00:29:47;101258.34;;;18.57;60.96
39773;BME280;25451;51.960;6.250;2023-07-13T00:32:13;101248.03;;;18.52;60.85
39773;BME280;25451;51.960;6.250;2023-07-13T00:34:39;101247.19;;;18.52;60.80
39773;BME280;25451;51.960;6.250;2023-07-13T00:37:05;101222.34;;;18.35;60.92
39773;BME280;25451;51.960;6.250;2023-07-13T00:39:32;101248.88;;;18.48;61.10
39773;BME280;25451;51.960;6.250;2023-07-13T00:41:59;101258.97;;;18.44;61.02
39773;BME280;25451;51.960;6.250;2023-07-13T00:44:24;101264.25;;;18.40;61.03
39773;BME280;25451;51.960;6.250;2023-07-13T00:46:50;101256.13;;;18.39;61.04
39773;BME280;25451;51.960;6.250;2023-07-13T00:49:19;101254.78;;;18.36;61.21
39773;BME280;25451;51.960;6.250;2023-07-13T00:51:51;101260.63;;;18.35;61.18
39773;BME280;25451;51.960;6.250;2023-07-13T00:54:27;101257.28;;;18.33;61.21
39773;BME280;25451;51.960;6.250;2023-07-13T00:56:58;101250.59;;;18.29;61.24
39773;BME280;25451;51.960;6.250;2023-07-13T00:59:25;101259.25;;;18.27;61.25
39773;BME280;25451;51.960;6.250;2023-07-13T01:01:51;101259.84;;;18.24;61.39
39773;BME280;25451;51.960;6.250;2023-07-13T01:04:17;101258.47;;;18.21;61.40
39773;BME280;25451;51.960;6.250;2023-07-13T01:06:43;101256.50;;;18.22;61.59
39773;BME280;25451;51.960;6.250;2023-07-13T01:09:11;101267.41;;;18.18;61.58
39773;BME280;25451;51.960;6.250;2023-07-13T01:11:37;101271.31;;;18.17;61.48
39773;BME280;25451;51.960;6.250;2023-07-13T01:14:03;101269.63;;;18.16;61.52
39773;BME280;25451;51.960;6.250;2023-07-13T01:16:32;101255.13;;;18.14;61.50
39773;BME280;25451;51.960;6.250;2023-07-13T01:18:57;101254.56;;;18.12;61.52
39773;BME280;25451;51.960;6.250;2023-07-13T01:21:31;101252.06;;;18.11;61.69
39773;BME280;25451;51.960;6.250;2023-07-13T01:23:57;101253.75;;;18.07;61.62
39773;BME280;25451;51.960;6.250;2023-07-13T01:26:23;101260.19;;;18.07;61.61
39773;BME280;25451;51.960;6.250;2023-07-13T01:28:48;101263.25;;;18.06;61.55
39773;BME280;25451;51.960;6.250;2023-07-13T01:31:14;101260.47;;;18.01;61.60
39773;BME280;25451;51.960;6.250;2023-07-13T01:33:40;101261.31;;;18.01;61.87
39773;BME280;25451;51.960;6.250;2023-07-13T01:36:07;101263.56;;;17.99;61.90
39773;BME280;25451;51.960;6.250;2023-07-13T01:38:34;101265.50;;;17.99;61.85
39773;BME280;25451;51.960;6.250;2023-07-13T01:41:00;101251.81;;;17.92;61.66
39773;BME280;25451;51.960;6.250;2023-07-13T01:43:25;101264.41;;;17.95;61.91
39773;BME280;25451;51.960;6.250;2023-07-13T01:45:51;101249.88;;;17.93;61.95
39773;BME280;25451;51.960;6.250;2023-07-13T01:48:16;101259.66;;;17.90;62.08
39773;BME280;25451;51.960;6.250;2023-07-13T01:50:42;101250.72;;;17.88;61.93
39773;BME280;25451;51.960;6.250;2023-07-13T01:53:08;101246.53;;;17.86;61.94
39773;BME280;25451;51.960;6.250;2023-07-13T01:55:33;101239.28;;;17.80;62.03
39773;BME280;25451;51.960;6.250;2023-07-13T01:57:59;101249.34;;;17.81;61.98
39773;BME280;25451;51.960;6.250;2023-07-13T02:00:24;101251.59;;;17.79;62.21
39773;BME280;25451;51.960;6.250;2023-07-13T02:02:50;101249.09;;;17.77;62.10
39773;BME280;25451;51.960;6.250;2023-07-13T02:05:16;101252.13;;;17.76;62.21
39773;BME280;25451;51.960;6.250;2023-07-13T02:07:42;101250.22;;;17.71;62.01
39773;BME280;25451;51.960;6.250;2023-07-13T02:10:09;101251.88;;;17.72;62.26
39773;BME280;25451;51.960;6.250;2023-07-13T02:12:35;101260.53;;;17.71;62.32
39773;BME280;25451;51.960;6.250;2023-07-13T02:15:01;101255.25;;;17.69;62.21
39773;BME280;25451;51.960;6.250;2023-07-13T02:17:27;101252.72;;;17.68;62.17
39773;BME280;25451;51.960;6.250;2023-07-13T02:19:52;101250.78;;;17.63;62.23
39773;BME280;25451;51.960;6.250;2023-07-13T02:22:18;101258.31;;;17.63;62.43
39773;BME280;25451;51.960;6.250;2023-07-13T02:24:43;101261.41;;;17.61;62.35
39773;BME280;25451;51.960;6.250;2023-07-13T02:27:09;101258.00;;;17.59;62.39
39773;BME280;25451;51.960;6.250;2023-07-13T02:29:34;101252.72;;;17.58;62.36
39773;BME280;25451;51.960;6.250;2023-07-13T02:32:03;101255.81;;;17.56;62.54
39773;BME280;25451;51.960;6.250;2023-07-13T02:34:28;101253.56;;;17.53;62.45
39773;BME280;25451;51.960;6.250;2023-07-13T02:36:53;101255.78;;;17.51;62.63
39773;BME280;25451;51.960;6.250;2023-07-13T02:39:19;101250.75;;;17.48;62.51
39773;BME280;25451;51.960;6.250;2023-07-13T02:41:44;101256.34;;;17.48;62.67
39773;BME280;25451;51.960;6.250;2023-07-13T02:44:12;101264.16;;;17.46;62.60
39773;BME280;25451;51.960;6.250;2023-07-13T02:46:38;101261.66;;;17.45;62.63
39773;BME280;25451;51.960;6.250;2023-07-13T02:49:04;101261.91;;;17.43;62.65
39773;BME280;25451;51.960;6.250;2023-07-13T02:51:30;101267.78;;;17.41;62.78
39773;BME280;25451;51.960;6.250;2023-07-13T02:53:58;101262.22;;;17.36;62.84
39773;BME280;25451;51.960;6.250;2023-07-13T02:56:25;101265.56;;;17.38;62.67
39773;BME280;25451;51.960;6.250;2023-07-13T02:58:51;101272.25;;;17.37;62.76
39773;BME280;25451;51.960;6.250;2023-07-13T03:01:17;101262.47;;;17.35;62.92
39773;BME280;25451;51.960;6.250;2023-07-13T03:03:45;101267.22;;;17.34;62.92
39773;BME280;25451;51.960;6.250;2023-07-13T03:06:11;101275.84;;;17.33;62.89
39773;BME280;25451;51.960;6.250;2023-07-13T03:08:36;101286.22;;;17.32;63.01
39773;BME280;25451;51.960;6.250;2023-07-13T03:11:05;101283.66;;;17.31;63.15
39773;BME280;25451;51.960;6.250;2023-07-13T03:13:31;101274.75;;;17.29;63.11
39773;BME280;25451;51.960;6.250;2023-07-13T03:15:57;101276.97;;;17.27;62.97
39773;BME280;25451;51.960;6.250;2023-07-13T03:18:22;101283.69;;;17.26;63.25
39773;BME280;25451;51.960;6.250;2023-07-13T03:20:51;101277.53;;;17.24;63.13
39773;BME280;25451;51.960;6.250;2023-07-13T03:23:16;101284.22;;;17.23;63.24
39773;BME280;25451;51.960;6.250;2023-07-13T03:25:42;101292.03;;;17.21;63.22
39773;BME280;25451;51.960;6.250;2023-07-13T03:28:08;101293.16;;;17.20;63.31
39773;BME280;25451;51.960;6.250;2023-07-13T03:30:33;101294.56;;;17.17;63.33
39773;BME280;25451;51.960;6.250;2023-07-13T03:32:58;101297.63;;;17.16;63.30
39773;BME280;25451;51.960;6.250;2023-07-13T03:35:24;101303.19;;;17.16;63.25
39773;BME280;25451;51.960;6.250;2023-07-13T03:37:49;101299.00;;;17.13;63.46
39773;BME280;25451;51.960;6.250;2023-07-13T03:40:16;101300.94;;;17.13;63.54
39773;BME280;25451;51.960;6.250;2023-07-13T03:42:42;101305.69;;;17.12;63.53
39773;BME280;25451;51.960;6.250;2023-07-13T03:45:07;101301.22;;;17.11;63.46
39773;BME280;25451;51.960;6.250;2023-07-13T03:47:33;101315.19;;;17.11;63.53
39773;BME280;25451;51.960;6.250;2023-07-13T03:49:58;101309.03;;;17.09;63.65
39773;BME280;25451;51.960;6.250;2023-07-13T03:52:24;101311.28;;;17.07;63.64
39773;BME280;25451;51.960;6.250;2023-07-13T03:54:49;101320.19;;;17.09;63.60
39773;BME280;25451;51.960;6.250;2023-07-13T03:57:15;101315.72;;;17.08;63.72
39773;BME280;25451;51.960;6.250;2023-07-13T03:59:40;101311.28;;;17.07;63.80
39773;BME280;25451;51.960;6.250;2023-07-13T04:02:05;101312.38;;;17.06;63.80
39773;BME280;25451;51.960;6.250;2023-07-13T04:04:31;101317.13;;;17.06;63.81
39773;BME280;25451;51.960;6.250;2023-07-13T04:06:59;101311.56;;;17.06;63.69
39773;BME280;25451;51.960;6.250;2023-07-13T04:09:25;101315.44;;;17.05;63.66
39773;BME280;25451;51.960;6.250;2023-07-13T04:11:50;101319.34;;;17.04;63.71
39773;BME280;25451;51.960;6.250;2023-07-13T04:14:16;101322.16;;;17.04;63.90
39773;BME280;25451;51.960;6.250;2023-07-13T04:16:42;101325.47;;;17.01;63.89
39773;BME280;25451;51.960;6.250;2023-07-13T04:19:09;101320.47;;;17.03;64.05
39773;BME280;25451;51.960;6.250;2023-07-13T04:21:35;101321.59;;;17.02;64.10
39773;BME280;25451;51.960;6.250;2023-07-13T04:24:01;101323.25;;;17.03;64.11
39773;BME280;25451;51.960;6.250;2023-07-13T04:26:28;101326.03;;;17.03;64.02
39773;BME280;25451;51.960;6.250;2023-07-13T04:28:53;101326.03;;;17.03;64.16
39773;BME280;25451;51.960;6.250;2023-07-13T04:31:20;101328.53;;;17.04;64.24
39773;BME280;25451;51.960;6.250;2023-07-13T04:33:45;101331.06;;;17.06;64.14
39773;BME280;25451;51.960;6.250;2023-07-13T04:36:10;101322.16;;;17.04;64.16
39773;BME280;25451;51.960;6.250;2023-07-13T04:38:36;101327.72;;;17.09;64.13
39773;BME280;25451;51.960;6.250;2023-07-13T04:41:04;101326.34;;;17.11;64.16
39773;BME280;25451;51.960;6.250;2023-07-13T04:43:31;101334.13;;;17.14;64.09
39773;BME280;25451;51.960;6.250;2023-07-13T04:45:57;101346.72;;;17.17;64.10
39773;BME280;25451;51.960;6.250;2023-07-13T04:48:23;101343.38;;;17.20;63.95
39773;BME280;25451;51.960;6.250;2023-07-13T04:50:56;101350.66;;;17.26;64.14
39773;BME280;25451;51.960;6.250;2023-07-13T04:53:22;101344.78;;;17.27;63.98
39773;BME280;25451;51.960;6.250;2023-07-13T04:55:47;101352.03;;;17.33;64.11
39773;BME280;25451;51.960;6.250;2023-07-13T04:58:13;101347.88;;;17.36;64.14
39773;BME280;25451;51.960;6.250;2023-07-13T05:00:38;101356.22;;;17.41;64.18
39773;BME280;25451;51.960;6.250;2023-07-13T05:03:04;101355.13;;;17.47;64.07
39773;BME280;25451;51.960;6.250;2023-07-13T05:05:30;101354.88;;;17.49;64.13
39773;BME280;25451;51.960;6.250;2023-07-13T05:07:55;101358.25;;;17.56;64.20
39773;BME280;25451;51.960;6.250;2023-07-13T05:10:21;101355.72;;;17.59;64.05
39773;BME280;25451;51.960;6.250;2023-07-13T05:12:47;101363.84;;;17.61;64.15
39773;BME280;25451;51.960;6.250;2023-07-13T05:15:12;101363.00;;;17.65;64.17
39773;BME280;25451;51.960;6.250;2023-07-13T05:17:38;101364.38;;;17.68;64.24
39773;BME280;25451;51.960;6.250;2023-07-13T05:20:08;101370.28;;;17.71;64.23
39773;BME280;25451;51.960;6.250;2023-07-13T05:22:34;101375.28;;;17.74;64.39
39773;BME280;25451;51.960;6.250;2023-07-13T05:25:01;101371.94;;;17.77;64.37
39773;BME280;25451;51.960;6.250;2023-07-13T05:27:27;101380.88;;;17.79;64.22
39773;BME280;25451;51.960;6.250;2023-07-13T05:29:52;101374.72;;;17.82;64.25
39773;BME280;25451;51.960;6.250;2023-07-13T05:32:18;101376.13;;;17.85;64.47
39773;BME280;25451;51.960;6.250;2023-07-13T05:34:44;101384.78;;;17.88;64.64
39773;BME280;25451;51.960;6.250;2023-07-13T05:37:09;101373.88;;;17.92;64.61
39773;BME280;25451;51.960;6.250;2023-07-13T05:39:35;101384.78;;;17.93;64.61
39773;BME280;25451;51.960;6.250;2023-07-13T05:42:01;101385.91;;;17.97;64.92
39773;BME280;25451;51.960;6.250;2023-07-13T05:44:27;101394.28;;;18.02;64.86
39773;BME280;25451;51.960;6.250;2023-07-13T05:46:52;101388.97;;;18.06;64.88
39773;BME280;25451;51.960;6.250;2023-07-13T05:49:18;101392.88;;;18.10;64.91
39773;BME280;25451;51.960;6.250;2023-07-13T05:51:43;101397.06;;;18.12;65.10
39773;BME280;25451;51.960;6.250;2023-07-13T05:54:09;101398.16;;;18.16;64.94
39773;BME280;25451;51.960;6.250;2023-07-13T05:56:34;101392.59;;;18.21;65.03
39773;BME280;25451;51.960;6.250;2023-07-13T05:59:00;101398.16;;;18.27;65.26
39773;BME280;25451;51.960;6.250;2023-07-13T06:01:25;101393.69;;;18.31;65.07
39773;BME280;25451;51.960;6.250;2023-07-13T06:03:51;101404.84;;;18.36;65.05
39773;BME280;25451;51.960;6.250;2023-07-13T06:06:17;101399.81;;;18.38;65.14
39773;BME280;25451;51.960;6.250;2023-07-13T06:08:42;101404.56;;;18.42;65.29
39773;BME280;25451;51.960;6.250;2023-07-13T06:11:13;101413.53;;;18.49;65.37
39773;BME280;25451;51.960;6.250;2023-07-13T06:13:39;101418.81;;;18.56;65.33
39773;BME280;25451;51.960;6.250;2023-07-13T06:16:05;101420.50;;;18.62;65.30
39773;BME280;25451;51.960;6.250;2023-07-13T06:18:32;101421.03;;;18.64;65.20
39773;BME280;25451;51.960;6.250;2023-07-13T06:20:58;101416.81;;;18.71;65.41
39773;BME280;25451;51.960;6.250;2023-07-13T06:23:24;101422.13;;;18.78;65.29
39773;BME280;25451;51.960;6.250;2023-07-13T06:25:50;101420.41;;;18.82;65.39
39773;BME280;25451;51.960;6.250;2023-07-13T06:28:15;101430.22;;;18.89;65.27
39773;BME280;25451;51.960;6.250;2023-07-13T06:30:40;101429.88;;;18.96;65.28
39773;BME280;25451;51.960;6.250;2023-07-13T06:33:06;101436.03;;;19.03;65.38
39773;BME280;25451;51.960;6.250;2023-07-13T06:35:32;101434.88;;;19.09;65.27
39773;BME280;25451;51.960;6.250;2023-07-13T06:37:57;101432.59;;;19.16;65.40
39773;BME280;25451;51.960;6.250;2023-07-13T06:40:23;101439.84;;;19.22;65.37
39773;BME280;25451;51.960;6.250;2023-07-13T06:42:48;101449.63;;;19.30;65.32
39773;BME280;25451;51.960;6.250;2023-07-13T06:45:14;101448.50;;;19.36;65.28
39773;BME280;25451;51.960;6.250;2023-07-13T06:47:39;101441.44;;;19.43;65.32
39773;BME280;25451;51.960;6.250;2023-07-13T06:50:05;101448.94;;;19.53;65.34
39773;BME280;25451;51.960;6.250;2023-07-13T06:52:30;101449.19;;;19.61;65.20
39773;BME280;25451;51.960;6.250;2023-07-13T06:54:56;101444.91;;;19.69;65.22
39773;BME280;25451;51.960;6.250;2023-07-13T06:57:21;101443.78;;;19.75;65.15
39773;BME280;25451;51.960;6.250;2023-07-13T06:59:47;101449.88;;;19.82;65.11
39773;BME280;25451;51.960;6.250;2023-07-13T07:02:12;101443.41;;;19.87;65.09
39773;BME280;25451;51.960;6.250;2023-07-13T07:04:37;101452.03;;;19.95;65.12
39773;BME280;25451;51.960;6.250;2023-07-13T07:07:03;101454.22;;;20.03;65.01
39773;BME280;25451;51.960;6.250;2023-07-13T07:09:29;101453.28;;;20.13;65.00
39773;BME280;25451;51.960;6.250;2023-07-13T07:11:56;101451.59;;;20.22;64.82
39773;BME280;25451;51.960;6.250;2023-07-13T07:14:22;101456.25;;;20.31;64.82
39773;BME280;25451;51.960;6.250;2023-07-13T07:16:47;101469.34;;;20.41;64.66
39773;BME280;25451;51.960;6.250;2023-07-13T07:19:13;101467.59;;;20.50;64.65
39773;BME280;25451;51.960;6.250;2023-07-13T07:21:38;101470.28;;;20.60;64.54
39773;BME280;25451;51.960;6.250;2023-07-13T07:24:04;101472.75;;;20.67;64.43
39773;BME280;25451;51.960;6.250;2023-07-13T07:26:30;101480.25;;;20.71;64.41
39773;BME280;25451;51.960;6.250;2023-07-13T07:28:56;101470.94;;;20.76;64.42
39773;BME280;25451;51.960;6.250;2023-07-13T07:31:21;101468.44;;;20.74;64.32
39773;BME280;25451;51.960;6.250;2023-07-13T07:33:46;101474.84;;;20.80;64.43
39773;BME280;25451;51.960;6.250;2023-07-13T07:36:12;101478.19;;;20.82;64.43
39773;BME280;25451;51.960;6.250;2023-07-13T07:38:37;101477.88;;;20.83;64.38
39773;BME280;25451;51.960;6.250;2023-07-13T07:41:04;101470.00;;;20.85;64.31
39773;BME280;25451;51.960;6.250;2023-07-13T07:43:30;101477.28;;;20.86;64.38
39773;BME280;25451;51.960;6.250;2023-07-13T07:45:56;101468.56;;;20.88;64.45
39773;BME280;25451;51.960;6.250;2023-07-13T07:48:21;101465.47;;;20.89;64.09
39773;BME280;25451;51.960;6.250;2023-07-13T07:50:47;101473.28;;;20.92;64.42
39773;BME280;25451;51.960;6.250;2023-07-13T07:53:12;101474.69;;;20.95;64.35
39773;BME280;25451;51.960;6.250;2023-07-13T07:55:38;101468.47;;;20.98;64.25
39773;BME280;25451;51.960;6.250;2023-07-13T07:58:04;101468.69;;;21.01;64.29
39773;BME280;25451;51.960;6.250;2023-07-13T08:00:30;101463.38;;;21.05;64.17
39773;BME280;25451;51.960;6.250;2023-07-13T08:02:57;101464.44;;;21.09;64.11
39773;BME280;25451;51.960;6.250;2023-07-13T08:05:23;101466.34;;;21.13;64.05
39773;BME280;25451;51.960;6.250;2023-07-13T08:07:48;101459.28;;;21.16;64.14
39773;BME280;25451;51.960;6.250;2023-07-13T08:10:14;101476.38;;;21.19;63.87
39773;BME280;25451;51.960;6.250;2023-07-13T08:12:40;101468.72;;;21.25;63.82
39773;BME280;25451;51.960;6.250;2023-07-13T08:15:09;101465.03;;;21.29;63.74
39773;BME280;25451;51.960;6.250;2023-07-13T08:17:35;101463.81;;;21.35;63.77
39773;BME280;25451;51.960;6.250;2023-07-13T08:20:01;101463.72;;;21.40;63.62
39773;BME280;25451;51.960;6.250;2023-07-13T08:22:27;101475.44;;;21.48;63.55
39773;BME280;25451;51.960;6.250;2023-07-13T08:24:52;101475.09;;;21.54;63.40
39773;BME280;25451;51.960;6.250;2023-07-13T08:27:22;101483.97;;;21.61;63.27
39773;BME280;25451;51.960;6.250;2023-07-13T08:29:48;101470.13;;;21.65;63.31
39773;BME280;25451;51.960;6.250;2023-07-13T08:32:14;101470.63;;;21.72;63.23
39773;BME280;25451;51.960;6.250;2023-07-13T08:34:40;101469.88;;;21.85;63.23
39773;BME280;25451;51.960;6.250;2023-07-13T08:37:06;101473.16;;;21.92;63.05
39773;BME280;25451;51.960;6.250;2023-07-13T08:39:32;101473.28;;;22.00;63.08
39773;BME280;25451;51.960;6.250;2023-07-13T08:42:02;101473.19;;;22.05;62.89
39773;BME280;25451;51.960;6.250;2023-07-13T08:47:22;101466.59;;;22.15;62.55
39773;BME280;25451;51.960;6.250;2023-07-13T08:49:49;101472.13;;;22.20;62.46
39773;BME280;25451;51.960;6.250;2023-07-13T08:52:40;101478.22;;;22.27;62.29
39773;BME280;25451;51.960;6.250;2023-07-13T08:55:14;101468.53;;;22.33;62.28
39773;BME280;25451;51.960;6.250;2023-07-13T08:57:42;101469.59;;;22.37;62.32
39773;BME280;25451;51.960;6.250;2023-07-13T09:00:12;101466.47;;;22.39;62.15
39773;BME280;25451;51.960;6.250;2023-07-13T09:02:55;101461.69;;;22.39;62.22
39773;BME280;25451;51.960;6.250;2023-07-13T09:05:36;101461.69;;;22.39;62.19
39773;BME280;25451;51.960;6.250;2023-07-13T09:08:23;101466.06;;;22.45;61.65
39773;BME280;25451;51.960;6.250;2023-07-13T09:16:24;101453.22;;;22.58;61.73
39773;BME280;25451;51.960;6.250;2023-07-13T09:18:56;101452.78;;;22.64;61.10
39773;BME280;25451;51.960;6.250;2023-07-13T09:21:31;101461.03;;;22.74;61.22
39773;BME280;25451;51.960;6.250;2023-07-13T09:26:55;101463.47;;;23.08;60.58
39773;BME280;25451;51.960;6.250;2023-07-13T09:29:32;101473.41;;;23.19;60.08
39773;BME280;25451;51.960;6.250;2023-07-13T09:32:06;101457.75;;;23.27;60.13
39773;BME280;25451;51.960;6.250;2023-07-13T09:34:34;101456.53;;;23.33;60.29
39773;BME280;25451;51.960;6.250;2023-07-13T09:37:01;101464.84;;;23.38;59.91
39773;BME280;25451;51.960;6.250;2023-07-13T09:39:37;101467.06;;;23.41;60.17
39773;BME280;25451;51.960;6.250;2023-07-13T09:44:38;101464.75;;;23.43;59.73
39773;BME280;25451;51.960;6.250;2023-07-13T09:47:31;101468.09;;;23.45;59.82
39773;BME280;25451;51.960;6.250;2023-07-13T09:50:16;101474.44;;;23.50;59.79
39773;BME280;25451;51.960;6.250;2023-07-13T09:52:48;101479.66;;;23.57;59.71
39773;BME280;25451;51.960;6.250;2023-07-13T09:55:31;101460.34;;;23.64;59.25
39773;BME280;25451;51.960;6.250;2023-07-13T09:58:02;101459.88;;;23.70;58.85
39773;BME280;25451;51.960;6.250;2023-07-13T10:00:31;101467.41;;;23.75;58.40
39773;BME280;25451;51.960;6.250;2023-07-13T10:03:03;101474.41;;;23.77;58.20
39773;BME280;25451;51.960;6.250;2023-07-13T10:05:50;101470.31;;;23.83;58.06
39773;BME280;25451;51.960;6.250;2023-07-13T10:08:24;101461.41;;;23.90;57.90
39773;BME280;25451;51.960;6.250;2023-07-13T10:10:58;101474.25;;;23.96;57.86
39773;BME280;25451;51.960;6.250;2023-07-13T10:13:36;101495.31;;;23.99;57.68
39773;BME280;25451;51.960;6.250;2023-07-13T10:16:05;101521.53;;;23.99;57.61
39773;BME280;25451;51.960;6.250;2023-07-13T10:19:13;101511.53;;;23.93;58.33
39773;BME280;25451;51.960;6.250;2023-07-13T10:22:01;101503.63;;;23.81;59.02
39773;BME280;25451;51.960;6.250;2023-07-13T10:24:36;101509.38;;;23.76;59.46
39773;BME280;25451;51.960;6.250;2023-07-13T10:27:20;101525.56;;;23.71;60.10
39773;BME280;25451;51.960;6.250;2023-07-13T10:30:23;101526.31;;;23.63;60.35
39773;BME280;25451;51.960;6.250;2023-07-13T10:32:52;101512.13;;;23.54;60.66
39773;BME280;25451;51.960;6.250;2023-07-13T10:35:21;101519.72;;;23.54;61.40
39773;BME280;25451;51.960;6.250;2023-07-13T10:37:54;101511.91;;;23.51;61.68
39773;BME280;25451;51.960;6.250;2023-07-13T10:40:34;101504.41;;;23.46;61.83
39773;BME280;25451;51.960;6.250;2023-07-13T10:43:06;101510.88;;;23.47;62.24
39773;BME280;25451;51.960;6.250;2023-07-13T10:45:36;101518.16;;;23.48;62.50
39773;BME280;25451;51.960;6.250;2023-07-13T10:48:03;101511.59;;;23.52;62.99
39773;BME280;25451;51.960;6.250;2023-07-13T10:50:29;101520.78;;;23.58;62.87
39773;BME280;25451;51.960;6.250;2023-07-13T10:53:28;101509.06;;;23.64;62.89
39773;BME280;25451;51.960;6.250;2023-07-13T10:55:58;101521.09;;;23.70;63.46
39773;BME280;25451;51.960;6.250;2023-07-13T10:58:35;101517.31;;;23.74;63.61
39773;BME280;25451;51.960;6.250;2023-07-13T11:01:17;101528.81;;;23.78;63.78
39773;BME280;25451;51.960;6.250;2023-07-13T11:08:57;101520.22;;;23.83;64.17
39773;BME280;25451;51.960;6.250;2023-07-13T11:18:49;101535.13;;;23.97;64.27
39773;BME280;25451;51.960;6.250;2023-07-13T11:23:45;101535.97;;;23.98;63.95
39773;BME280;25451;51.960;6.250;2023-07-13T11:31:56;101550.06;;;23.98;64.29
39773;BME280;25451;51.960;6.250;2023-07-13T11:34:34;101545.25;;;23.98;64.12
39773;BME280;25451;51.960;6.250;2023-07-13T11:37:00;101549.41;;;24.01;64.22
39773;BME280;25451;51.960;6.250;2023-07-13T11:39:37;101542.44;;;23.98;64.16
39773;BME280;25451;51.960;6.250;2023-07-13T11:42:10;101546.91;;;23.99;64.22
39773;BME280;25451;51.960;6.250;2023-07-13T11:44:42;101540.66;;;24.02;64.39
39773;BME280;25451;51.960;6.250;2023-07-13T11:47:11;101547.38;;;24.06;64.19
39773;BME280;25451;51.960;6.250;2023-07-13T11:49:50;101554.56;;;24.12;63.99
39773;BME280;25451;51.960;6.250;2023-07-13T11:52:21;101551.59;;;24.17;64.08
39773;BME280;25451;51.960;6.250;2023-07-13T11:54:52;101545.34;;;24.20;63.75
39773;BME280;25451;51.960;6.250;2023-07-13T11:59:58;101555.53;;;24.30;63.54
39773;BME280;25451;51.960;6.250;2023-07-13T12:02:36;101551.75;;;24.34;63.30
39773;BME280;25451;51.960;6.250;2023-07-13T12:05:04;101541.09;;;24.31;63.14
39773;BME280;25451;51.960;6.250;2023-07-13T12:07:32;101548.94;;;24.34;63.32
39773;BME280;25451;51.960;6.250;2023-07-13T12:10:27;101535.97;;;24.33;63.04
39773;BME280;25451;51.960;6.250;2023-07-13T12:13:02;101537.84;;;24.38;62.94
39773;BME280;25451;51.960;6.250;2023-07-13T12:15:41;101539.19;;;24.40;63.30
39773;BME280;25451;51.960;6.250;2023-07-13T12:18:14;101539.91;;;24.46;63.28
39773;BME280;25451;51.960;6.250;2023-07-13T12:20:40;101547.41;;;24.50;63.02
39773;BME280;25451;51.960;6.250;2023-07-13T12:23:20;101547.47;;;24.59;62.84
39773;BME280;25451;51.960;6.250;2023-07-13T12:25:47;101549.84;;;24.65;62.37
39773;BME280;25451;51.960;6.250;2023-07-13T12:28:36;101538.88;;;24.64;62.02
39773;BME280;25451;51.960;6.250;2023-07-13T12:31:07;101550.94;;;24.78;61.67
39773;BME280;25451;51.960;6.250;2023-07-13T12:33:43;101532.03;;;24.79;61.54
39773;BME280;25451;51.960;6.250;2023-07-13T12:36:10;101552.63;;;24.79;61.41
39773;BME280;25451;51.960;6.250;2023-07-13T12:38:37;101544.78;;;24.76;60.98
39773;BME280;25451;51.960;6.250;2023-07-13T12:41:02;101548.47;;;24.77;61.05
39773;BME280;25451;51.960;6.250;2023-07-13T12:43:33;101543.66;;;24.77;60.98
39773;BME280;25451;51.960;6.250;2023-07-13T12:46:05;101544.16;;;24.79;60.74
39773;BME280;25451;51.960;6.250;2023-07-13T12:48:41;101548.84;;;24.84;61.09
39773;BME280;25451;51.960;6.250;2023-07-13T12:51:10;101552.69;;;24.88;61.11
39773;BME280;25451;51.960;6.250;2023-07-13T12:53:41;101547.41;;;24.95;60.86
39773;BME280;25451;51.960;6.250;2023-07-13T12:56:17;101549.78;;;25.01;60.55
39773;BME280;25451;51.960;6.250;2023-07-13T12:58:43;101544.81;;;25.07;60.62
39773;BME280;25451;51.960;6.250;2023-07-13T13:01:13;101552.31;;;25.11;60.48
39773;BME280;25451;51.960;6.250;2023-07-13T13:03:44;101548.03;;;25.14;60.32
39773;BME280;25451;51.960;6.250;2023-07-13T13:08:41;101547.19;;;25.13;60.15
39773;BME280;25451;51.960;6.250;2023-07-13T13:11:08;101556.31;;;25.10;59.86
39773;BME280;25451;51.960;6.250;2023-07-13T13:13:34;101553.78;;;25.09;59.93
39773;BME280;25451;51.960;6.250;2023-07-13T13:16:14;101544.50;;;25.08;59.70
39773;BME280;25451;51.960;6.250;2023-07-13T13:18:42;101544.81;;;25.07;59.44
39773;BME280;25451;51.960;6.250;2023-07-13T13:21:09;101561.47;;;25.08;59.59
39773;BME280;25451;51.960;6.250;2023-07-13T13:23:35;101567.41;;;25.07;58.94
39773;BME280;25451;51.960;6.250;2023-07-13T13:26:00;101566.22;;;24.99;58.27
39773;BME280;25451;51.960;6.250;2023-07-13T13:28:26;101563.34;;;24.91;57.58
39773;BME280;25451;51.960;6.250;2023-07-13T13:30:52;101573.25;;;24.80;57.27
39773;BME280;25451;51.960;6.250;2023-07-13T13:33:19;101561.16;;;24.65;57.12
39773;BME280;25451;51.960;6.250;2023-07-13T13:35:45;101577.31;;;24.51;56.97